Latest Coastal Weather Observations for Cape Willoughby

IDS60701

Issued at 3:15 am CDT Saturday 22 November 2014 (issued every 10 minutes, with the page automatically refreshed every 10 minutes)

About coastal observations | Map of coastal stations | Coastal observations for SA | Marine services | Other Formats
Station Details ID: 022803 Name: CAPE WILLOUGHBY Lat: -35.84 Lon: 138.13 Height: 55.0 m
Data from the previous 72 hours. | See also: Recent months at Cape Willoughby
Date/Time
CDT
Temp

°C
Wind Pressure Rain
since 9am
mm
Weather Cloud Vis
km
Sea
Height
m
Swell
Dir
 
Speed
knots
Gust
knots
hPa Trend Height
m
Period
s
Dir
22/03:00am 20.0 SSW 11 18 1006.1 - 0.0 - - - - - - -
22/02:30am 18.8 NE 12 16 1005.0 - 0.0 - - - - - - -
22/02:00am 18.7 NE 15 18 1005.1 - 0.0 - - - - - - -
22/01:30am 18.7 NE 15 17 1005.5 - 0.0 - - - - - - -
22/01:00am 18.5 NE 18 22 1005.6 - 0.0 - - - - - - -
22/12:30am 18.1 NE 18 22 1006.4 - 0.0 - - - - - - -
22/12:00am 18.0 NE 18 22 1007.5 - 0.0 - - - - - - -
 
Date/Time
CDT
Temp

°C
Wind Pressure Rain
since 9am
mm
Weather Cloud Vis
km
Sea
Height
m
Swell
Dir
 
Speed
knots
Gust
knots
hPa Trend Height
m
Period
s
Dir
21/11:30pm 17.6 NE 16 18 1008.2 - 0.0 - - - - - - -
21/11:00pm 17.3 ENE 14 18 1008.9 - 0.0 - - - - - - -
21/10:30pm 17.1 ENE 13 16 1009.4 - 0.0 - - - - - - -
21/10:00pm 16.8 NNE 7 11 1009.8 - 0.0 - - - - - - -
21/09:30pm 16.6 NNE 5 6 1010.0 - 0.0 - - - - - - -
21/09:00pm 16.7 NNE 6 7 1010.2 - 0.0 - - - - - - -
21/08:30pm 16.6 NNE 6 8 1010.2 - 0.0 - - - - - - -
21/08:00pm 16.9 NNE 8 8 1010.2 - 0.0 - - - - - - -
21/07:30pm 17.3 NNE 8 9 1010.2 - 0.0 - - - - - - -
21/07:00pm 18.0 N 10 11 1010.2 - 0.0 - - - - - - -
21/06:30pm 18.4 N 7 8 1010.3 - 0.0 - - - - - - -
21/06:00pm 18.7 N 11 12 1010.3 - 0.0 - - - - - - -
21/05:30pm 20.0 N 9 11 1010.1 - 0.0 - - - - - - -
21/05:00pm 19.2 N 9 15 1010.0 - 0.0 - - - - - - -
21/04:30pm 19.3 N 11 14 1010.3 - 0.0 - - - - - - -
21/04:00pm 19.9 N 10 13 1010.5 - 0.0 - - - - - - -
21/03:30pm 18.8 N 10 13 1011.0 - 0.0 - - - - - - -
21/03:00pm 18.9 N 12 16 1011.5 - 0.0 - - - - - - -
21/02:30pm 19.9 N 14 17 1011.5 - 0.0 - - - - - - -
21/02:00pm 20.4 N 14 17 1011.8 - 0.0 - - - - - - -
21/01:30pm 20.5 N 18 21 1012.2 - 0.0 - - - - - - -
21/01:00pm 19.8 N 16 19 1012.3 - 0.0 - - - - - - -
21/12:30pm 20.0 N 19 23 1012.4 - 0.0 - - - - - - -
21/12:00pm 20.1 N 18 22 1012.3 - 0.0 - - - - - - -
21/11:30am 19.4 N 20 24 1012.4 - 0.0 - - - - - - -
21/11:00am 19.3 N 18 23 1012.3 - 0.0 - - - - - - -
21/10:30am 19.4 N 12 16 1012.7 - 0.0 - - - - - - -
21/10:00am 17.0 SE 3 4 1013.1 - 0.0 - - - - - - -
21/09:30am 17.5 WNW 7 13 1013.1 - 0.0 - - - - - - -
21/09:00am 17.1 WNW 8 11 1013.1 - 0.2 - - - - - - -
21/08:30am 15.9 WNW 6 10 1012.9 - 0.2 - - - - - - -
21/08:00am 15.2 W 6 10 1012.6 - 0.2 - - - - - - -
21/07:30am 14.2 W 6 7 1012.3 - 0.2 - - - - - - -
21/07:00am 12.9 W 8 9 1012.1 - 0.2 - - - - - - -
21/06:30am 12.3 W 9 10 1011.9 - 0.2 - - - - - - -
21/06:00am 11.7 W 9 11 1011.9 - 0.2 - - - - - - -
21/05:30am 11.7 W 10 12 1011.6 - 0.2 - - - - - - -
21/05:00am 11.6 WNW 11 12 1011.4 - 0.2 - - - - - - -
21/04:30am 11.5 WNW 10 11 1011.4 - 0.2 - - - - - - -
21/04:00am 12.2 W 10 12 1011.5 - 0.2 - - - - - - -
21/03:30am 12.8 W 10 12 1011.5 - 0.2 - - - - - - -
21/03:00am 13.4 WNW 11 13 1011.5 - 0.2 - - - - - - -
21/02:30am 13.5 WNW 10 11 1011.3 - 0.2 - - - - - - -
21/02:00am 13.8 WNW 9 12 1011.0 - 0.2 - - - - - - -
21/01:30am 13.8 W 5 7 1011.3 - 0.2 - - - - - - -
21/01:00am 14.4 WSW 7 9 1011.6 - 0.2 - - - - - - -
21/12:30am 14.8 SW 8 10 1011.8 - 0.2 - - - - - - -
21/12:00am 14.9 SW 6 10 1011.9 - 0.2 - - - - - - -
 
Date/Time
CDT
Temp

°C
Wind Pressure Rain
since 9am
mm
Weather Cloud Vis
km
Sea
Height
m
Swell
Dir
 
Speed
knots
Gust
knots
hPa Trend Height
m
Period
s
Dir
20/11:30pm 14.8 SW 8 12 1012.0 - 0.2 - - - - - - -
20/11:00pm 15.0 SSW 11 15 1011.5 - 0.2 - - - - - - -
20/10:30pm 14.7 WSW 10 13 1011.6 - 0.2 - - - - - - -
20/10:00pm 15.0 SW 11 15 1011.5 - 0.2 - - - - - - -
20/09:30pm 15.4 SW 12 16 1011.2 - 0.2 - - - - - - -
20/09:00pm 15.3 SW 17 22 1010.9 - 0.2 - - - - - - -
20/08:30pm 15.4 SW 13 17 1010.3 - 0.2 - - - - - - -
20/08:00pm 15.9 SW 13 18 1009.6 - 0.2 - - - - - - -
20/07:30pm 16.1 SW 14 20 1009.0 - 0.2 - - - - - - -
20/07:00pm 16.6 SW 15 20 1008.3 - 0.2 - - - - - - -
20/06:30pm 17.2 SW 16 21 1008.0 - 0.2 - - - - - - -
20/06:00pm 17.4 SW 17 24 1007.8 - 0.2 - - - - - - -
20/05:30pm 17.6 SW 18 25 1007.6 - 0.2 - - - - - - -
20/05:00pm 18.1 SW 21 25 1007.3 - 0.2 - - - - - - -
20/04:37pm 18.4 SW 21 32 1006.8 - 0.2 - - - - - - -
20/04:30pm 18.6 SW 20 26 1006.8 - 0.2 - - - - - - -
20/04:00pm 18.8 SW 17 22 1006.8 - 0.2 - - - - - - -
20/03:30pm 19.5 SW 20 27 1006.8 - 0.2 - - - - - - -
20/03:09pm 20.4 SW 15 26 1006.3 - 0.2 - - - - - - -
20/03:00pm 23.0 NW 16 23 1006.3 - 0.2 - - - - - - -
20/02:30pm 22.5 WNW 20 26 1006.2 - 0.2 - - - - - - -
20/02:00pm 22.4 WNW 22 29 1006.1 - 0.2 - - - - - - -
20/01:42pm 21.0 WNW 23 34 1006.0 - 0.2 - - - - - - -
20/01:30pm 19.7 NW 24 30 1006.1 - 0.2 - - - - - - -
20/01:05pm 19.0 NW 21 31 1006.4 - 0.2 - - - - - - -
20/01:00pm 18.9 NW 21 28 1006.4 - 0.2 - - - - - - -
20/12:30pm 19.8 NNW 19 24 1006.6 - 0.2 - - - - - - -
20/12:00pm 21.8 NW 22 30 1006.3 - 0.0 - - - - - - -
20/11:30am 22.0 WNW 21 28 1006.7 - 0.0 - - - - - - -
20/11:00am 22.9 NW 20 30 1006.4 - 0.0 - - - - - - -
20/10:30am 21.8 NNW 19 29 1006.4 - 0.0 - - - - - - -
20/10:03am 22.8 NNW 21 32 1006.2 - 0.0 - - - - - - -
20/10:00am 23.0 NNW 23 32 1006.2 - 0.0 - - - - - - -
20/09:31am 22.5 NW 23 34 1006.1 - 0.0 - - - - - - -
20/09:30am 22.5 NW 23 32 1006.1 - 0.0 - - - - - - -
20/09:00am 22.9 NW 26 38 1005.9 - 0.0 - - - - - - -
20/08:30am 23.3 WNW 23 33 1005.7 - 0.0 - - - - - - -
20/08:29am 23.3 WNW 23 33 1005.7 - 0.0 - - - - - - -
20/08:00am 24.3 WNW 22 31 1005.2 - 0.0 - - - - - - -
20/07:30am 23.9 WNW 20 26 1005.2 - 0.0 - - - - - - -
20/07:00am 23.8 WNW 21 29 1004.9 - 0.0 - - - - - - -
20/06:47am 24.0 WNW 21 32 1004.6 - 0.0 - - - - - - -
20/06:46am 23.9 WNW 20 29 1004.7 - 0.0 - - - - - - -
20/06:30am 20.3 NW 10 16 1004.6 - 0.0 - - - - - - -
20/06:00am 20.3 WNW 8 10 1003.9 - 0.0 - - - - - - -
20/05:30am 20.2 NNW 12 15 1004.1 - 0.0 - - - - - - -
20/05:00am 20.1 WNW 15 19 1003.8 - 0.0 - - - - - - -
20/04:30am 20.6 NNW 17 21 1004.5 - 0.0 - - - - - - -
20/04:00am 23.5 WNW 14 17 1004.4 - 0.0 - - - - - - -
20/03:30am 24.0 WNW 17 22 1005.0 - 0.0 - - - - - - -
20/03:00am 22.4 NNW 21 25 1005.2 - 0.0 - - - - - - -
20/02:30am 23.5 NNW 26 33 1004.4 - 0.0 - - - - - - -
20/02:00am 26.3 NNW 24 27 1004.2 - 0.0 - - - - - - -
20/01:30am 25.4 N 12 18 1004.9 - 0.0 - - - - - - -
20/01:00am 22.4 N 7 9 1005.3 - 0.0 - - - - - - -
20/12:30am 21.4 NNE 5 6 1005.8 - 0.0 - - - - - - -
20/12:00am 20.4 N 5 6 1006.1 - 0.0 - - - - - - -
 
Date/Time
CDT
Temp

°C
Wind Pressure Rain
since 9am
mm
Weather Cloud Vis
km
Sea
Height
m
Swell
Dir
 
Speed
knots
Gust
knots
hPa Trend Height
m
Period
s
Dir
19/11:30pm 20.2 N 6 7 1006.6 - 0.0 - - - - - - -
19/11:00pm 21.1 N 7 11 1006.9 - 0.0 - - - - - - -
19/10:30pm 20.1 N 7 11 1007.3 - 0.0 - - - - - - -
19/10:00pm 19.4 N 7 10 1007.4 - 0.0 - - - - - - -
19/09:30pm 19.5 NNE 8 11 1007.2 - 0.0 - - - - - - -
19/09:00pm 19.5 NNE 6 9 1007.3 - 0.0 - - - - - - -
19/08:30pm 19.9 NNE 8 12 1007.4 - 0.0 - - - - - - -
19/08:00pm 19.7 NNE 6 8 1007.4 - 0.0 - - - - - - -
19/07:30pm 21.0 NE 7 8 1008.1 - 0.0 - - - - - - -
19/07:00pm 22.0 N 7 9 1008.3 - 0.0 - - - - - - -
19/06:30pm 23.6 NNE 5 8 1008.6 - 0.0 - - - - - - -
19/06:00pm 23.2 NNE 5 7 1008.8 - 0.0 - - - - - - -
19/05:30pm 24.8 NNW 11 14 1009.3 - 0.0 - - - - - - -
19/05:00pm 24.6 NNW 14 17 1009.7 - 0.0 - - - - - - -
19/04:30pm 24.9 NNW 16 18 1010.1 - 0.0 - - - - - - -
19/04:00pm 25.1 NNW 15 17 1010.6 - 0.0 - - - - - - -
19/03:30pm 24.5 NNW 17 19 1011.0 - 0.0 - - - - - - -
19/03:00pm 24.1 NNW 16 19 1011.4 - 0.0 - - - - - - -
19/02:30pm 23.8 N 17 21 1011.7 - 0.0 - - - - - - -
19/02:00pm 24.5 N 15 17 1012.3 - 0.0 - - - - - - -
19/01:30pm 24.5 NNW 18 21 1013.1 - 0.0 - - - - - - -
19/01:00pm 23.6 NNW 19 24 1013.3 - 0.0 - - - - - - -
19/12:30pm 22.5 NNW 21 25 1013.4 - 0.0 - - - - - - -
19/12:00pm 22.6 N 16 20 1014.1 - 0.0 - - - - - - -
19/11:55am 22.3 N 15 20 1014.2 - 0.0 - - - - - - -
19/11:30am 19.0 NE 5 7 1014.6 - 0.0 - - - - - - -
19/11:00am 19.3 ENE 5 5 1015.2 - 0.0 - - - - - - -
19/10:30am 19.1 NNE 7 8 1015.1 - 0.0 - - - - - - -
19/10:00am 18.6 NNE 5 7 1015.8 - 0.0 - - - - - - -
19/09:30am 18.4 N 12 13 1015.8 - 0.0 - - - - - - -
19/09:00am 16.8 NE 14 17 1016.0 - 0.0 - - - - - - -
19/08:30am 16.4 NE 16 19 1016.2 - 0.0 - - - - - - -
19/08:00am 16.3 NE 17 21 1016.3 - 0.0 - - - - - - -
19/07:30am 15.2 NE 16 19 1016.4 - 0.0 - - - - - - -
19/07:00am 14.9 NE 14 17 1016.9 - 0.0 - - - - - - -
19/06:30am 14.3 NE 11 13 1017.6 - 0.0 - - - - - - -
19/06:00am 14.1 NE 13 16 1017.5 - 0.0 - - - - - - -
19/05:30am 14.1 NE 13 16 1017.5 - 0.0 - - - - - - -
19/05:00am 14.3 NE 13 15 1017.7 - 0.0 - - - - - - -
19/04:30am 14.7 NE 12 16 1017.6 - 0.0 - - - - - - -
19/04:00am 14.8 ENE 13 16 1017.8 - 0.0 - - - - - - -
19/03:30am 14.6 ENE 12 15 1018.3 - 0.0 - - - - - - -

Other Formats:

Comma delimited format used in spreadsheet applications
http://www.bom.gov.au/fwo/IDS60701/IDS60701.94822.axf

JavaScript Object Notation format (JSON) in row-major order
http://www.bom.gov.au/fwo/IDS60701/IDS60701.94822.json